Time;durP1;ratioP1;P1;durP2;ratioP2;P2;SDS_P1;SDS_P2;PMS_P1;PMS_P2;Temp;Humidity;BMP_temperature;BMP_pressure;BME280_temperature;BME280_humidity;BME280_pressure;Samples;Min_cycle;Max_cycle;Signal;HPM_P1;HPM_P2
2023/12/20 00:01:26;;;;;;;15.77;11.07;;;7.40;99.90;;;6.53;100.00;100407.88;5035028;28;20214;-74
2023/12/20 00:03:54;;;;;;;14.07;11.40;;;7.40;99.90;;;6.51;100.00;100404.50;5034939;28;20223;-74
2023/12/20 00:06:23;;;;;;;16.53;11.20;;;7.30;99.90;;;6.51;100.00;100401.00;5035206;28;20218;-74
2023/12/20 00:08:51;;;;;;;17.37;12.70;;;7.30;99.90;;;6.48;100.00;100410.13;5035142;28;20222;-74
2023/12/20 00:11:19;;;;;;;15.60;11.73;;;7.30;99.90;;;6.44;100.00;100398.09;5035143;28;20303;-74
2023/12/20 00:13:47;;;;;;;16.87;11.87;;;7.30;99.90;;;6.44;100.00;100387.44;5035084;28;20294;-74
2023/12/20 00:16:19;;;;;;;15.40;11.43;;;7.30;99.90;;;6.43;100.00;100396.44;5035106;28;20195;-74
2023/12/20 00:18:48;;;;;;;13.00;10.73;;;7.20;99.90;;;6.42;100.00;100400.06;5034938;28;20227;-74
2023/12/20 00:21:16;;;;;;;16.33;12.83;;;7.30;99.90;;;6.40;100.00;100402.03;5034976;28;20213;-74
2023/12/20 00:23:45;;;;;;;15.23;11.27;;;7.30;99.90;;;6.38;100.00;100395.16;5034823;28;20230;-73
2023/12/20 00:26:13;;;;;;;13.50;10.60;;;7.20;99.90;;;6.36;100.00;100405.94;5034852;28;20301;-73
2023/12/20 00:28:42;;;;;;;13.17;9.67;;;7.20;99.90;;;6.36;100.00;100403.28;5034760;28;20227;-73
2023/12/20 00:31:10;;;;;;;14.97;10.43;;;7.20;99.90;;;6.35;100.00;100408.75;5034773;28;20215;-74
2023/12/20 00:33:43;;;;;;;15.87;10.30;;;7.20;99.90;;;6.33;100.00;100408.91;5034388;28;20664;-73
2023/12/20 00:36:13;;;;;;;21.07;10.30;;;7.20;99.90;;;6.27;100.00;100411.28;5034765;28;20274;-73
2023/12/20 00:38:41;;;;;;;16.37;9.03;;;7.10;99.90;;;6.27;100.00;100417.41;5034591;28;20309;-73
2023/12/20 00:41:09;;;;;;;15.93;9.33;;;7.10;99.90;;;6.24;100.00;100417.69;5034294;28;20211;-73
2023/12/20 00:43:37;;;;;;;15.67;8.47;;;7.10;99.90;;;6.21;100.00;100412.66;5034183;28;20722;-73
2023/12/20 00:46:05;;;;;;;14.30;7.63;;;7.00;99.90;;;6.25;100.00;100415.88;5034526;28;20211;-73
2023/12/20 00:48:34;;;;;;;13.23;8.03;;;7.00;99.90;;;6.23;100.00;100415.19;5034352;28;20229;-73
2023/12/20 00:51:02;;;;;;;15.77;7.33;;;7.00;99.90;;;6.20;100.00;100424.25;5034031;28;20301;-74
2023/12/20 00:53:31;;;;;;;11.23;6.30;;;7.00;99.90;;;6.21;100.00;100430.44;5033945;28;20207;-74
2023/12/20 00:55:59;;;;;;;10.90;6.93;;;7.00;99.90;;;6.15;100.00;100423.88;5033531;28;20242;-74
2023/12/20 00:58:27;;;;;;;16.17;7.53;;;7.00;99.90;;;6.17;100.00;100419.22;5034170;28;20318;-73
2023/12/20 01:00:56;;;;;;;13.80;7.17;;;7.00;99.90;;;6.16;100.00;100424.72;5033927;28;20688;-73
2023/12/20 01:03:24;;;;;;;13.33;6.80;;;7.00;99.90;;;6.16;100.00;100430.88;5034072;28;20206;-73
2023/12/20 01:05:52;;;;;;;13.90;6.23;;;7.00;99.90;;;6.13;100.00;100423.16;5034140;28;20207;-73
2023/12/20 01:08:20;;;;;;;13.30;7.30;;;6.90;99.90;;;6.06;100.00;100420.22;5033988;28;20237;-73
2023/12/20 01:10:50;;;;;;;14.33;6.23;;;6.80;99.90;;;6.06;100.00;100414.09;5033746;28;20203;-73
2023/12/20 01:13:18;;;;;;;13.43;5.93;;;6.80;99.90;;;6.10;100.00;100416.31;5033705;28;20627;-74
2023/12/20 01:15:48;;;;;;;9.47;5.23;;;6.90;99.90;;;6.13;100.00;100420.50;5033982;28;20203;-73
2023/12/20 01:18:16;;;;;;;16.40;5.77;;;6.90;99.90;;;6.12;100.00;100418.84;5033592;28;20734;-73
2023/12/20 01:20:45;;;;;;;12.10;5.10;;;6.90;99.90;;;6.12;100.00;100416.19;5033585;28;20686;-73
2023/12/20 01:23:13;;;;;;;9.77;4.90;;;6.90;99.90;;;6.04;100.00;100416.03;5033877;28;20276;-73
2023/12/20 01:25:41;;;;;;;11.53;5.03;;;6.80;99.90;;;6.03;100.00;100419.66;5033729;28;20262;-73
2023/12/20 01:28:10;;;;;;;11.40;4.90;;;6.80;99.90;;;6.02;100.00;100410.03;5033706;28;20235;-73
2023/12/20 01:30:38;;;;;;;10.97;3.97;;;6.80;99.90;;;6.01;100.00;100411.00;5033734;28;20221;-73
2023/12/20 01:33:07;;;;;;;9.43;4.10;;;6.80;99.90;;;5.97;100.00;100413.09;5033694;28;20272;-73
2023/12/20 01:35:35;;;;;;;15.17;4.60;;;6.80;99.90;;;5.94;100.00;100421.34;5033683;28;20305;-73
2023/12/20 01:38:03;;;;;;;15.10;4.80;;;6.70;99.90;;;5.96;100.00;100421.19;5033590;28;20318;-73
2023/12/20 01:40:31;;;;;;;16.73;4.20;;;6.80;99.90;;;5.95;100.00;100423.03;5033267;28;20238;-73
2023/12/20 01:43:01;;;;;;;14.27;4.00;;;6.80;99.90;;;5.96;100.00;100426.50;5033274;28;20640;-74
2023/12/20 01:45:30;;;;;;;10.40;4.10;;;6.70;99.90;;;5.96;100.00;100423.84;5033439;28;20237;-74
2023/12/20 01:48:01;;;;;;;14.57;4.23;;;6.80;99.90;;;5.97;100.00;100433.50;5033470;28;20284;-74
2023/12/20 01:50:32;;;;;;;14.43;3.93;;;6.70;99.90;;;5.91;100.00;100436.72;5033217;28;20217;-74
2023/12/20 01:53:03;;;;;;;12.50;4.00;;;6.70;99.90;;;5.88;100.00;100432.53;5033176;28;20676;-74
2023/12/20 01:55:35;;;;;;;11.30;3.83;;;6.70;99.90;;;5.89;100.00;100428.88;5033487;28;20285;-74
2023/12/20 01:58:05;;;;;;;14.27;4.13;;;6.70;99.90;;;5.89;100.00;100430.72;5033672;28;20321;-73
2023/12/20 02:00:36;;;;;;;11.97;4.00;;;6.60;99.90;;;5.82;100.00;100429.53;5033383;28;20280;-73
2023/12/20 02:03:05;;;;;;;7.97;3.67;;;6.60;99.90;;;5.76;100.00;100424.75;5033329;28;20210;-70
2023/12/20 02:05:35;;;;;;;10.47;3.70;;;6.60;99.90;;;5.76;100.00;100427.41;5034150;28;20226;-70
2023/12/20 02:08:05;;;;;;;8.50;3.57;;;6.50;99.90;;;5.77;100.00;100427.28;5037099;28;20766;-70
2023/12/20 02:10:33;;;;;;;13.67;4.30;;;6.60;99.90;;;5.77;100.00;100429.09;5037405;28;20253;-70
2023/12/20 02:13:01;;;;;;;10.33;3.57;;;6.60;99.90;;;5.75;100.00;100431.06;5037321;28;20294;-70
2023/12/20 02:15:30;;;;;;;8.57;3.50;;;6.50;99.90;;;5.75;100.00;100425.75;5037349;28;20207;-70
2023/12/20 02:18:00;;;;;;;7.87;3.50;;;6.50;99.90;;;5.69;100.00;100428.94;5037257;28;20229;-70
2023/12/20 02:20:28;;;;;;;12.07;3.17;;;6.40;99.90;;;5.70;100.00;100423.50;5036968;28;20206;-70
2023/12/20 02:22:57;;;;;;;7.47;3.23;;;6.50;99.90;;;5.66;100.00;100415.94;5036907;28;20751;-70
2023/12/20 02:25:25;;;;;;;10.83;3.13;;;6.50;99.90;;;5.70;100.00;100420.00;5037068;28;20223;-70
2023/12/20 02:27:54;;;;;;;12.20;3.33;;;6.50;99.90;;;5.62;100.00;100416.22;5036756;28;20734;-70
2023/12/20 02:30:22;;;;;;;15.40;3.40;;;6.40;99.90;;;5.67;100.00;100407.00;5037098;28;20207;-70
2023/12/20 02:32:52;;;;;;;11.17;2.80;;;6.50;99.90;;;5.60;100.00;100396.94;5037049;28;20632;-70
2023/12/20 02:35:20;;;;;;;13.40;2.90;;;6.40;99.90;;;5.53;100.00;100398.44;5036970;28;20243;-70
2023/12/20 02:37:48;;;;;;;9.73;2.97;;;6.40;99.90;;;5.56;100.00;100394.69;5036841;28;20227;-70
2023/12/20 02:40:18;;;;;;;13.83;2.83;;;6.40;99.90;;;5.54;100.00;100396.63;5036618;28;20685;-70
2023/12/20 02:42:46;;;;;;;9.13;2.93;;;6.30;99.90;;;5.54;100.00;100401.94;5036835;28;20211;-70
2023/12/20 02:45:14;;;;;;;8.00;2.50;;;6.30;99.90;;;5.55;100.00;100408.91;5036701;28;20227;-74
2023/12/20 02:47:42;;;;;;;15.37;3.20;;;6.30;99.90;;;5.49;100.00;100404.16;5036654;28;20254;-73
2023/12/20 02:50:11;;;;;;;14.53;3.30;;;6.30;99.90;;;5.46;100.00;100399.97;5036440;28;20219;-73
2023/12/20 02:52:39;;;;;;;8.37;2.90;;;6.30;99.90;;;5.48;100.00;100402.50;5036663;28;20249;-73
2023/12/20 02:55:08;;;;;;;14.63;2.90;;;6.30;99.90;;;5.42;100.00;100397.72;5036601;28;20207;-74
2023/12/20 02:57:41;;;;;;;11.00;2.97;;;6.30;99.90;;;5.42;100.00;100392.41;5036484;28;20574;-74
2023/12/20 03:00:11;;;;;;;8.87;3.23;;;6.20;99.90;;;5.41;100.00;100391.56;5036220;28;20540;-74
2023/12/20 03:02:39;;;;;;;11.13;3.00;;;6.30;99.90;;;5.39;100.00;100388.22;5036456;28;20218;-74
2023/12/20 03:05:08;;;;;;;11.60;3.17;;;6.20;99.90;;;5.34;100.00;100385.09;5036322;28;20325;-74
2023/12/20 03:07:38;;;;;;;13.47;3.70;;;6.20;99.90;;;5.32;100.00;100373.81;5036299;28;20284;-74
2023/12/20 03:10:09;;;;;;;16.50;4.03;;;6.10;99.90;;;5.34;100.00;100390.41;5036337;28;20222;-74
2023/12/20 03:12:48;;;;;;;9.00;3.57;;;6.20;99.90;;;5.34;100.00;100379.81;5036341;28;20194;-73
2023/12/20 03:15:17;;;;;;;12.67;4.10;;;6.20;99.90;;;5.28;100.00;100390.13;5036231;28;20199;-75
2023/12/20 03:17:45;;;;;;;16.17;4.33;;;6.10;99.90;;;5.28;100.00;100385.66;5034949;28;20223;-75
2023/12/20 03:20:13;;;;;;;10.03;3.73;;;6.10;99.90;;;5.27;100.00;100373.38;5036154;28;20261;-75
2023/12/20 03:22:42;;;;;;;17.13;4.60;;;6.10;99.90;;;5.22;100.00;100370.28;5035769;28;20210;-74
2023/12/20 03:25:10;;;;;;;18.17;4.13;;;6.10;99.90;;;5.24;100.00;100368.31;5035668;28;20775;-74
2023/12/20 03:27:39;;;;;;;13.13;4.13;;;6.10;99.90;;;5.22;100.00;100372.09;5035957;28;20238;-74
2023/12/20 03:30:10;;;;;;;16.33;4.17;;;6.00;99.90;;;5.16;100.00;100362.88;5035956;28;20211;-75
2023/12/20 03:32:39;;;;;;;13.43;3.30;;;6.00;99.90;;;5.11;100.00;100357.09;5035962;28;20195;-75
2023/12/20 03:35:07;;;;;;;9.10;3.17;;;5.90;99.90;;;5.10;100.00;100347.50;5035886;28;20214;-75
2023/12/20 03:37:36;;;;;;;10.23;3.20;;;5.90;99.90;;;5.09;100.00;100332.53;5035763;28;20311;-74
2023/12/20 03:40:06;;;;;;;7.73;2.60;;;5.90;99.90;;;5.05;100.00;100336.44;5035752;28;20210;-75
2023/12/20 03:42:34;;;;;;;9.90;2.90;;;5.90;99.90;;;5.05;100.00;100325.81;5035414;28;20211;-75
2023/12/20 03:45:02;;;;;;;13.87;3.03;;;5.90;99.90;;;5.04;100.00;100335.59;5035311;28;20728;-75
2023/12/20 03:47:31;;;;;;;10.20;2.40;;;5.90;99.90;;;5.05;100.00;100333.78;5035549;28;20317;-74
2023/12/20 03:49:59;;;;;;;8.57;2.83;;;5.90;99.90;;;5.04;100.00;100322.31;5035383;28;20211;-74
2023/12/20 03:52:27;;;;;;;7.40;2.13;;;5.90;99.90;;;5.02;100.00;100331.41;5035564;28;20213;-75
2023/12/20 03:54:56;;;;;;;5.90;2.03;;;5.90;99.90;;;5.03;100.00;100328.59;5035200;28;20265;-75
2023/12/20 03:57:24;;;;;;;12.80;2.27;;;5.90;99.90;;;5.00;100.00;100339.47;5035382;28;20230;-74
2023/12/20 03:59:53;;;;;;;7.17;2.17;;;5.80;99.90;;;5.01;100.00;100332.34;5035403;28;20309;-74
2023/12/20 04:02:21;;;;;;;10.63;2.40;;;5.80;99.90;;;4.96;100.00;100327.47;5035378;28;20570;-74
2023/12/20 04:04:50;;;;;;;10.33;2.33;;;5.80;99.90;;;4.93;100.00;100324.25;5035197;28;20206;-73
2023/12/20 04:07:18;;;;;;;8.57;2.37;;;5.80;99.90;;;4.90;100.00;100327.16;5034888;28;20242;-73
2023/12/20 04:09:48;;;;;;;11.07;2.70;;;5.70;99.90;;;4.93;100.00;100326.91;5035034;28;20566;-74
2023/12/20 04:12:16;;;;;;;9.73;2.10;;;5.70;99.90;;;4.93;100.00;100332.22;5035204;28;20215;-74
2023/12/20 04:14:44;;;;;;;11.47;2.40;;;5.80;99.90;;;4.86;100.00;100323.09;5035151;28;20269;-74
2023/12/20 04:17:12;;;;;;;7.83;2.30;;;5.70;99.90;;;4.86;100.00;100334.53;5035030;28;20229;-73
2023/12/20 04:19:40;;;;;;;7.43;2.10;;;5.70;99.90;;;4.84;100.00;100323.22;5035116;28;20210;-73
2023/12/20 04:22:10;;;;;;;10.53;2.80;;;5.70;99.90;;;4.87;100.00;100322.13;5035231;28;20210;-74
2023/12/20 04:24:38;;;;;;;7.37;2.37;;;5.70;99.90;;;4.86;100.00;100328.41;5034931;28;20297;-74
2023/12/20 04:27:06;;;;;;;9.00;2.07;;;5.70;99.90;;;4.87;100.00;100316.81;5034768;28;20235;-73
2023/12/20 04:29:34;;;;;;;10.87;2.30;;;5.70;99.90;;;4.87;100.00;100335.38;5034568;28;20211;-74
2023/12/20 04:32:03;;;;;;;10.17;2.33;;;5.70;99.90;;;4.87;100.00;100322.13;5034780;28;20234;-74
2023/12/20 04:34:31;;;;;;;7.87;2.00;;;5.80;99.90;;;4.86;100.00;100320.47;5034755;28;20639;-74
2023/12/20 04:37:00;;;;;;;6.53;2.30;;;5.80;99.90;;;4.88;100.00;100334.41;5034637;28;20198;-73
2023/12/20 04:39:29;;;;;;;10.70;2.43;;;5.70;99.90;;;4.89;100.00;100317.53;5034649;28;20234;-73
2023/12/20 04:41:57;;;;;;;12.00;2.40;;;5.80;99.90;;;4.89;100.00;100314.88;5034314;28;20647;-74
2023/12/20 04:44:26;;;;;;;8.13;2.50;;;5.80;99.90;;;4.91;100.00;100320.88;5034217;28;20301;-74
2023/12/20 04:46:56;;;;;;;7.57;2.40;;;5.80;99.90;;;4.91;100.00;100315.56;5034376;28;20222;-73
2023/12/20 04:49:24;;;;;;;12.80;3.17;;;5.80;99.90;;;4.93;100.00;100305.69;5034290;28;20297;-73
2023/12/20 04:51:52;;;;;;;12.90;3.17;;;5.80;99.90;;;4.94;100.00;100310.84;5035045;28;20195;-74
2023/12/20 04:54:21;;;;;;;11.43;2.60;;;5.80;99.90;;;4.93;100.00;100305.69;5034366;28;20230;-74
2023/12/20 04:56:51;;;;;;;11.03;3.13;;;5.80;99.90;;;4.93;100.00;100306.50;5033960;28;20297;-73
2023/12/20 04:59:19;;;;;;;10.40;2.70;;;5.80;99.90;;;4.96;100.00;100316.03;5034277;28;20249;-73
2023/12/20 05:01:47;;;;;;;10.57;2.90;;;5.80;99.90;;;4.96;100.00;100314.22;5034246;28;20210;-74
2023/12/20 05:04:15;;;;;;;10.93;2.77;;;5.90;99.90;;;4.99;100.00;100316.59;5033876;28;20754;-74
2023/12/20 05:06:43;;;;;;;12.10;2.63;;;5.90;99.90;;;5.00;100.00;100320.09;5034070;28;20265;-74
2023/12/20 05:09:12;;;;;;;14.87;2.77;;;5.90;99.90;;;5.00;100.00;100318.25;5034102;28;20241;-74
2023/12/20 05:11:40;;;;;;;11.03;3.27;;;5.90;99.90;;;5.03;100.00;100306.56;5034073;28;20241;-73
2023/12/20 05:14:10;;;;;;;10.97;2.80;;;5.90;99.90;;;5.03;100.00;100306.56;5033690;28;20580;-73
2023/12/20 05:16:38;;;;;;;14.10;3.10;;;5.90;99.90;;;5.04;100.00;100300.25;5033660;28;20656;-74
2023/12/20 05:19:06;;;;;;;12.63;2.83;;;5.90;99.90;;;5.03;100.00;100317.16;5033849;28;20230;-73
2023/12/20 05:21:35;;;;;;;13.77;2.87;;;5.90;99.90;;;5.05;100.00;100301.94;5033910;28;20214;-75
2023/12/20 05:24:04;;;;;;;13.67;2.80;;;6.00;99.90;;;5.06;100.00;100300.97;5033851;28;20207;-74
2023/12/20 05:26:32;;;;;;;13.43;3.47;;;6.00;99.90;;;5.08;100.00;100304.31;5033447;28;20226;-74
2023/12/20 05:29:01;;;;;;;14.37;3.20;;;6.00;99.90;;;5.08;100.00;100305.16;5033706;28;20277;-73
2023/12/20 05:31:30;;;;;;;16.07;3.50;;;6.00;99.90;;;5.09;100.00;100301.53;5033761;28;20298;-73
2023/12/20 05:33:59;;;;;;;12.57;3.03;;;6.00;99.90;;;5.11;100.00;100298.72;5033321;28;20657;-73
2023/12/20 05:36:28;;;;;;;13.70;3.37;;;6.00;99.90;;;5.11;100.00;100296.91;5033330;28;20687;-75
2023/12/20 05:38:56;;;;;;;19.13;3.60;;;6.00;99.90;;;5.13;100.00;100302.09;5033536;28;20258;-74
2023/12/20 05:41:24;;;;;;;13.00;3.20;;;6.00;99.90;;;5.14;100.00;100298.44;5033012;28;20294;-74
2023/12/20 05:43:52;;;;;;;15.67;3.53;;;6.00;99.90;;;5.16;100.00;100301.84;5033630;28;20213;-75
2023/12/20 05:46:21;;;;;;;10.57;3.50;;;6.10;99.90;;;5.16;100.00;100299.19;5033482;28;20234;-74
2023/12/20 05:48:51;;;;;;;17.97;4.00;;;6.10;99.90;;;5.15;100.00;100294.00;5033364;28;20317;-75
2023/12/20 05:51:19;;;;;;;12.73;3.10;;;6.00;99.90;;;5.15;100.00;100300.16;5033607;28;20191;-74
2023/12/20 05:53:49;;;;;;;19.70;3.37;;;6.10;99.90;;;5.15;100.00;100286.88;5033504;28;20293;-74
2023/12/20 05:56:17;;;;;;;13.73;3.60;;;6.00;99.90;;;5.13;100.00;100291.50;5033446;28;20282;-74
2023/12/20 05:58:46;;;;;;;15.30;3.80;;;6.00;99.90;;;5.15;100.00;100299.31;5033347;28;20234;-74
2023/12/20 06:01:16;;;;;;;15.40;3.63;;;6.00;99.90;;;5.13;100.00;100302.09;5033130;28;20664;-75
2023/12/20 06:03:45;;;;;;;13.33;4.10;;;6.00;99.90;;;5.16;100.00;100291.22;5033535;28;20201;-74
2023/12/20 06:06:15;;;;;;;15.60;4.03;;;6.10;99.90;;;5.18;100.00;100289.25;5032998;28;20647;-75
2023/12/20 06:08:44;;;;;;;12.47;3.43;;;6.10;99.90;;;5.21;100.00;100285.47;5033339;28;20226;-74
2023/12/20 06:11:13;;;;;;;13.67;3.60;;;6.10;99.90;;;5.19;100.00;100288.28;5033309;28;20203;-74
2023/12/20 06:13:41;;;;;;;14.13;3.73;;;6.10;99.90;;;5.19;100.00;100295.41;5033056;28;20700;-74
2023/12/20 06:16:09;;;;;;;16.30;4.23;;;6.10;99.90;;;5.18;100.00;100289.25;5033015;28;20722;-74
2023/12/20 06:18:38;;;;;;;11.83;3.87;;;6.10;99.90;;;5.19;100.00;100296.25;5033204;28;20253;-75
2023/12/20 06:21:07;;;;;;;18.37;5.17;;;6.10;99.90;;;5.19;100.00;100285.63;5033221;28;20261;-75
2023/12/20 06:23:36;;;;;;;11.40;3.90;;;6.10;99.90;;;5.19;100.00;100293.59;5033239;28;20265;-75
2023/12/20 06:26:05;;;;;;;16.57;4.23;;;6.10;99.90;;;5.19;100.00;100298.06;5033123;28;20221;-75
2023/12/20 06:28:33;;;;;;;15.97;3.90;;;6.10;99.90;;;5.19;100.00;100284.78;5033254;28;20227;-75
2023/12/20 06:31:01;;;;;;;19.57;4.23;;;6.10;99.90;;;5.20;100.00;100286.47;5033137;28;20213;-75
2023/12/20 06:33:30;;;;;;;17.90;3.47;;;6.10;99.90;;;5.20;100.00;100292.63;5033162;28;20211;-75
2023/12/20 06:35:59;;;;;;;16.63;4.03;;;6.10;99.90;;;5.20;100.00;100281.16;5033134;28;20206;-75
2023/12/20 06:38:27;;;;;;;13.37;4.00;;;6.10;99.90;;;5.19;100.00;100285.63;5033052;28;20634;-74
2023/12/20 06:40:57;;;;;;;15.53;3.60;;;6.10;99.90;;;5.20;100.00;100289.97;5033066;28;20207;-75
2023/12/20 06:43:25;;;;;;;18.23;4.53;;;6.10;99.90;;;5.19;100.00;100285.63;5032742;28;20563;-75
2023/12/20 06:45:58;;;;;;;20.30;4.23;;;6.10;99.90;;;5.21;100.00;100277.50;5033019;28;20194;-74
2023/12/20 06:48:27;;;;;;;18.10;4.70;;;6.10;99.90;;;5.21;100.00;100273.06;5032793;28;20254;-74
2023/12/20 06:50:55;;;;;;;14.40;4.47;;;6.10;99.90;;;5.22;100.00;100266.78;5032595;28;20654;-75
2023/12/20 06:53:22;;;;;;;14.97;4.07;;;6.10;99.90;;;5.24;100.00;100282.56;5036544;28;20290;-75
2023/12/20 06:55:50;;;;;;;26.20;5.20;;;6.10;99.90;;;5.22;100.00;100268.59;5036293;28;20651;-74
2023/12/20 06:58:20;;;;;;;12.80;3.93;;;6.10;99.90;;;5.21;100.00;100283.66;5036212;28;20701;-74
2023/12/20 07:00:48;;;;;;;14.63;4.00;;;6.10;99.90;;;5.21;100.00;100282.81;5036480;28;20211;-74
2023/12/20 07:03:16;;;;;;;16.37;5.10;;;6.10;99.90;;;5.20;100.00;100271.41;5036150;28;20672;-75
2023/12/20 07:05:45;;;;;;;20.53;4.67;;;6.10;99.90;;;5.20;100.00;100281.16;5036460;28;20306;-75
2023/12/20 07:08:15;;;;;;;16.30;4.30;;;6.10;99.90;;;5.22;100.00;100274.75;5036256;28;20262;-75
2023/12/20 07:10:43;;;;;;;13.43;4.13;;;6.10;99.90;;;5.22;100.00;100274.75;5036074;28;20293;-75
2023/12/20 07:13:12;;;;;;;20.37;4.63;;;6.10;99.90;;;5.24;100.00;100274.63;5035993;28;20206;-75
2023/12/20 07:15:42;;;;;;;18.50;4.33;;;6.10;99.90;;;5.24;100.00;100271.97;5036984;28;20257;-74
2023/12/20 07:18:12;;;;;;;24.90;6.17;;;6.10;99.90;;;5.22;100.00;100274.75;5035903;28;20797;-74
2023/12/20 07:20:40;;;;;;;20.03;5.80;;;6.10;99.90;;;5.20;100.00;100274.06;5035828;28;20211;-75
2023/12/20 07:23:08;;;;;;;27.47;5.97;;;6.10;99.90;;;5.17;100.00;100271.69;5036886;28;20257;-75
2023/12/20 07:25:36;;;;;;;21.63;5.33;;;6.10;99.90;;;5.16;100.00;100263.84;5036091;28;20218;-75
2023/12/20 07:28:06;;;;;;;23.60;6.40;;;6.10;99.90;;;5.15;100.00;100262.16;5035921;28;20231;-74
2023/12/20 07:30:34;;;;;;;15.90;4.97;;;6.10;99.90;;;5.12;100.00;100247.34;5035654;28;20676;-74
2023/12/20 07:33:04;;;;;;;19.43;4.57;;;6.00;99.90;;;5.09;100.00;100267.03;5035966;28;20641;-74
2023/12/20 07:35:32;;;;;;;14.40;4.27;;;6.00;99.90;;;5.07;100.00;100261.03;5035594;28;20579;-74
2023/12/20 07:38:02;;;;;;;15.63;4.00;;;6.00;99.90;;;5.07;100.00;100274.28;5035485;28;20731;-75
2023/12/20 07:40:30;;;;;;;19.47;4.50;;;6.00;99.90;;;5.10;100.00;100275.84;5035776;28;20203;-75
2023/12/20 07:42:58;;;;;;;13.67;4.20;;;6.00;99.90;;;5.11;100.00;100272.19;5035418;28;20636;-75
2023/12/20 07:45:26;;;;;;;16.80;5.03;;;6.00;99.90;;;5.11;100.00;100281.00;5035366;28;20249;-74
2023/12/20 07:47:55;;;;;;;21.83;6.03;;;6.00;99.90;;;5.13;100.00;100274.72;5035845;28;20234;-74
2023/12/20 07:50:24;;;;;;;19.40;6.70;;;6.00;99.90;;;5.15;100.00;100283.38;5035271;28;20215;-75
2023/12/20 07:52:53;;;;;;;22.93;6.40;;;6.10;99.90;;;5.13;100.00;100280.88;5035595;28;20211;-74
2023/12/20 07:55:21;;;;;;;15.30;5.07;;;6.10;99.90;;;5.16;100.00;100275.28;5035519;28;20294;-75
2023/12/20 07:57:49;;;;;;;16.23;4.77;;;6.10;99.90;;;5.16;100.00;100270.00;5035372;28;20245;-75
2023/12/20 08:00:19;;;;;;;20.47;5.90;;;6.10;99.90;;;5.19;100.00;100263.56;5035467;28;20211;-63
2023/12/20 08:02:47;;;;;;;15.90;4.00;;;6.10;99.90;;;5.19;100.00;100271.53;5035079;28;20206;-70
2023/12/20 08:05:15;;;;;;;14.40;4.40;;;6.10;99.90;;;5.17;100.00;100292.91;5034756;28;20242;-72
2023/12/20 08:07:47;;;;;;;18.17;5.13;;;6.10;99.90;;;5.13;100.00;100270.25;5035221;28;20237;-71
2023/12/20 08:10:15;;;;;;;20.87;5.40;;;6.00;99.90;;;5.11;100.00;100272.19;5035265;28;20207;-72
2023/12/20 08:12:47;;;;;;;19.93;4.73;;;6.00;99.90;;;5.08;100.00;100261.88;5035278;28;20203;-71
2023/12/20 08:15:15;;;;;;;14.97;5.17;;;6.00;99.90;;;5.09;100.00;100276.81;5035127;28;20206;-72
2023/12/20 08:17:43;;;;;;;16.83;4.13;;;6.00;99.90;;;5.07;100.00;100273.44;5035033;28;20222;-71
2023/12/20 08:20:12;;;;;;;12.60;4.20;;;6.00;99.90;;;5.06;100.00;100264.66;5035041;28;20331;-71
2023/12/20 08:22:48;;;;;;;13.10;3.83;;;6.00;99.90;;;5.09;100.00;100274.16;5035088;28;20194;-71
2023/12/20 08:25:16;;;;;;;17.67;4.57;;;6.00;99.90;;;5.08;100.00;100272.47;5035528;28;20213;-71
2023/12/20 08:27:44;;;;;;;10.50;4.13;;;6.00;99.90;;;5.07;100.00;100261.03;5034800;28;20301;-71
2023/12/20 08:30:13;;;;;;;13.87;4.27;;;6.00;99.90;;;5.08;100.00;100252.09;5034558;28;20617;-71
2023/12/20 08:32:41;;;;;;;21.20;4.80;;;6.00;99.90;;;5.09;100.00;100244.97;5034818;28;20242;-71
2023/12/20 08:35:10;;;;;;;15.37;4.43;;;6.00;99.90;;;5.11;100.00;100256.28;5034748;28;20219;-71
2023/12/20 08:37:38;;;;;;;19.20;4.80;;;6.00;99.90;;;5.10;100.00;100254.63;5034669;28;20296;-71
2023/12/20 08:40:09;;;;;;;19.33;5.27;;;6.00;99.90;;;5.13;100.00;100233.13;5034659;28;20211;-71
2023/12/20 08:42:37;;;;;;;23.83;4.77;;;6.00;99.90;;;5.16;100.00;100226.69;5034665;28;20195;-71
2023/12/20 08:45:06;;;;;;;13.47;4.67;;;6.10;99.90;;;5.18;100.00;100230.03;5034596;28;20237;-71
2023/12/20 08:47:34;;;;;;;20.70;4.97;;;6.10;99.90;;;5.21;100.00;100227.94;5034402;28;20226;-71
2023/12/20 08:50:04;;;;;;;16.80;4.27;;;6.10;99.90;;;5.23;100.00;100228.66;5034228;28;20214;-71
2023/12/20 08:52:33;;;;;;;16.17;4.77;;;6.10;99.90;;;5.27;100.00;100224.75;5034487;28;20241;-71
2023/12/20 08:55:01;;;;;;;17.23;4.20;;;6.20;99.90;;;5.30;100.00;100215.66;5034372;28;20211;-72
2023/12/20 08:57:31;;;;;;;15.80;4.80;;;6.20;99.90;;;5.30;100.00;100219.16;5034295;28;20231;-71
2023/12/20 08:59:59;;;;;;;17.87;4.43;;;6.20;99.90;;;5.32;100.00;100211.03;5034379;28;20218;-71
2023/12/20 09:02:28;;;;;;;18.07;4.27;;;6.20;99.90;;;5.32;100.00;100217.19;5034006;28;20641;-71
2023/12/20 09:04:57;;;;;;;11.60;4.33;;;6.20;99.90;;;5.34;100.00;100207.25;5034181;28;20211;-71
2023/12/20 09:07:27;;;;;;;16.17;5.00;;;6.30;99.90;;;5.35;100.00;100206.28;5034143;28;20227;-71
2023/12/20 09:09:55;;;;;;;14.23;4.83;;;6.30;99.90;;;5.37;100.00;100195.56;5034130;28;20210;-71
2023/12/20 09:12:23;;;;;;;14.47;4.00;;;6.30;99.90;;;5.40;100.00;100193.44;5034069;28;20203;-71
2023/12/20 09:14:53;;;;;;;19.70;5.00;;;6.30;99.90;;;5.42;100.00;100201.25;5033372;28;20203;-71
2023/12/20 09:17:22;;;;;;;13.33;4.40;;;6.30;99.90;;;5.45;100.00;100195.66;5033805;28;20317;-71
2023/12/20 09:19:52;;;;;;;17.67;4.27;;;6.40;99.90;;;5.46;100.00;100203.50;5033548;28;20213;-72
2023/12/20 09:22:20;;;;;;;12.77;4.07;;;6.40;99.90;;;5.48;100.00;100190.91;5033811;28;20207;-71
2023/12/20 09:24:49;;;;;;;13.67;3.77;;;6.40;99.90;;;5.52;100.00;100189.66;5033808;28;20210;-71
2023/12/20 09:27:17;;;;;;;15.03;4.47;;;6.40;99.90;;;5.53;100.00;100185.19;5033800;28;20652;-71
2023/12/20 09:29:45;;;;;;;11.33;4.33;;;6.40;99.90;;;5.52;100.00;100180.84;5033651;28;20227;-71
2023/12/20 09:32:15;;;;;;;12.17;3.50;;;6.40;99.90;;;5.52;100.00;100179.03;5033799;28;20302;-71
2023/12/20 09:34:43;;;;;;;17.00;4.10;;;6.40;99.90;;;5.52;100.00;100183.50;5033651;28;20285;-70
2023/12/20 09:37:11;;;;;;;15.87;5.23;;;6.40;99.90;;;5.53;100.00;100188.69;5033600;28;20226;-71
2023/12/20 09:39:39;;;;;;;14.47;4.70;;;6.50;99.90;;;5.53;100.00;100182.53;5034176;28;20306;-71
2023/12/20 09:42:08;;;;;;;12.20;3.43;;;6.40;99.90;;;5.54;100.00;100179.75;5033327;28;20297;-72
2023/12/20 09:44:37;;;;;;;10.93;3.73;;;6.40;99.90;;;5.55;100.00;100183.22;5033410;28;20249;-71
2023/12/20 09:47:07;;;;;;;9.77;3.30;;;6.50;99.90;;;5.54;100.00;100185.06;5032721;28;20326;-71
2023/12/20 09:49:38;;;;;;;12.83;4.80;;;6.40;99.90;;;5.57;100.00;100179.47;5031685;28;20317;-71
2023/12/20 09:52:12;;;;;;;14.57;4.13;;;6.50;99.90;;;5.59;100.00;100172.19;5033562;28;20203;-72
2023/12/20 09:54:40;;;;;;;13.43;3.93;;;6.50;99.90;;;5.62;100.00;100169.25;5032887;28;20199;-71
2023/12/20 09:57:10;;;;;;;15.73;4.53;;;6.50;99.90;;;5.62;100.00;100176.38;5032966;28;20231;-71
2023/12/20 09:59:39;;;;;;;18.03;4.10;;;6.50;99.90;;;5.62;100.00;100158.63;5033145;28;20203;-72
2023/12/20 10:02:14;;;;;;;14.83;5.00;;;6.50;99.90;;;5.67;100.00;100174.13;5033094;28;20233;-71
2023/12/20 10:04:48;;;;;;;12.57;4.03;;;6.60;99.90;;;5.70;100.00;100162.38;5033174;28;20535;-72
2023/12/20 10:07:17;;;;;;;14.07;4.03;;;6.60;99.90;;;5.69;100.00;100150.06;5033368;28;20319;-72
2023/12/20 10:09:47;;;;;;;16.47;4.70;;;6.60;99.90;;;5.73;100.00;100156.78;5032987;28;20261;-71
2023/12/20 10:12:15;;;;;;;12.33;4.30;;;6.60;99.90;;;5.73;100.00;100152.31;5033591;28;20236;-72
2023/12/20 10:14:43;;;;;;;21.13;4.90;;;6.60;99.90;;;5.77;100.00;100163.47;5033351;28;20253;-72
2023/12/20 10:17:11;;;;;;;14.90;5.50;;;6.60;99.90;;;5.78;100.00;100149.22;5032961;28;20230;-72
2023/12/20 10:19:39;;;;;;;14.13;4.07;;;6.60;99.90;;;5.79;100.00;100153.56;5033248;28;20289;-72